Time;durP1;ratioP1;P1;durP2;ratioP2;P2;SDS_P1;SDS_P2;PMS_P1;PMS_P2;Temp;Humidity;BMP_temperature;BMP_pressure;BME280_temperature;BME280_humidity;BME280_pressure;Samples;Min_cycle;Max_cycle;Signal;HPM_P1;HPM_P2
2022/09/04 00:02:23;;;;;;;16.50;14.75;;;;;;;18.42;65.34;101273.72;4980863;28;20129;-81
2022/09/04 00:05:00;;;;;;;15.10;13.52;;;;;;;18.53;64.58;101270.75;4983090;28;20031;-81
2022/09/04 00:07:32;;;;;;;14.63;13.23;;;;;;;18.56;65.24;101270.38;4955117;28;20069;-80
2022/09/04 00:10:23;;;;;;;15.20;13.80;;;;;;;18.66;64.05;101274.66;4979542;28;20490;-81
2022/09/04 00:13:01;;;;;;;15.25;13.23;;;;;;;18.61;64.68;101276.97;4967180;28;20419;-81
2022/09/04 00:15:35;;;;;;;15.02;13.52;;;;;;;18.53;64.94;101281.25;4980610;28;20030;-81
2022/09/04 00:18:12;;;;;;;16.00;14.45;;;;;;;18.54;65.19;101276.81;4965162;28;20065;-81
2022/09/04 00:20:52;;;;;;;24.47;21.97;;;;;;;18.47;65.65;101275.84;4968634;28;20037;-81
2022/09/04 00:23:24;;;;;;;22.00;19.90;;;;;;;18.21;67.05;101281.25;4985311;28;20269;-81
2022/09/04 00:26:12;;;;;;;18.90;17.10;;;;;;;18.18;67.29;101281.56;4987637;28;20045;-81
2022/09/04 00:28:45;;;;;;;16.30;14.80;;;;;;;18.15;67.23;101287.16;4970074;28;20366;-80
2022/09/04 00:31:37;;;;;;;16.88;15.27;;;;;;;18.24;65.85;101286.19;4986175;28;20489;-81
2022/09/04 00:34:36;;;;;;;17.88;16.08;;;;;;;18.26;66.24;101289.47;4987160;28;20024;-80
2022/09/04 00:37:05;;;;;;;17.25;15.45;;;;;;;18.13;67.35;101289.13;4987314;28;20038;-81
2022/09/04 00:39:59;;;;;;;16.30;14.80;;;;;;;18.23;66.76;101289.78;4969563;28;20022;-81
2022/09/04 00:42:48;;;;;;;17.63;15.98;;;;;;;18.12;67.56;101297.97;4967522;28;20038;-81
2022/09/04 00:45:40;;;;;;;18.63;16.80;;;;;;;18.15;67.14;101297.66;4986564;28;20093;-81
2022/09/04 00:48:27;;;;;;;18.30;16.70;;;;;;;18.11;67.11;101296.34;4955104;28;20423;-81
2022/09/04 00:51:14;;;;;;;17.63;16.00;;;;;;;18.09;67.39;101295.69;4983608;28;20113;-81
2022/09/04 00:54:04;;;;;;;17.85;16.15;;;;;;;18.06;67.52;101299.44;4981553;28;20113;-81
2022/09/04 00:57:12;;;;;;;18.92;17.17;;;;;;;18.05;67.41;101309.13;4983676;28;20117;-81
2022/09/04 01:00:03;;;;;;;18.15;16.50;;;;;;;17.95;68.64;101308.47;4944042;28;20527;-81
2022/09/04 01:02:42;;;;;;;17.75;16.13;;;;;;;17.97;68.40;101311.75;4984330;28;20019;-81
2022/09/04 01:05:31;;;;;;;18.77;17.08;;;;;;;17.81;68.80;101314.34;4985876;28;20034;-81
2022/09/04 01:08:27;;;;;;;18.55;16.73;;;;;;;17.71;69.64;101300.50;4981514;28;20042;-80
2022/09/04 01:11:06;;;;;;;18.17;16.40;;;;;;;17.70;69.69;101309.34;4949451;28;20104;-79
2022/09/04 01:14:13;;;;;;;18.65;17.05;;;;;;;17.77;68.67;101320.88;4985813;28;20041;-80
2022/09/04 01:16:46;;;;;;;18.88;17.23;;;;;;;17.47;70.51;101320.41;4919939;29;20047;-79
2022/09/04 01:19:29;;;;;;;18.50;16.85;;;;;;;17.37;70.85;101309.22;4926596;29;20043;-80
2022/09/04 01:22:24;;;;;;;18.20;16.70;;;;;;;17.32;71.32;101327.25;4910587;29;20172;-80
2022/09/04 01:25:01;;;;;;;17.60;16.00;;;;;;;17.18;72.05;101322.59;4910292;29;20091;-79
2022/09/04 01:27:41;;;;;;;18.38;16.65;;;;;;;17.20;73.07;101328.47;4927186;29;20047;-80
2022/09/04 01:30:15;;;;;;;17.83;16.33;;;;;;;17.03;73.64;101327.56;4929069;29;20045;-79
2022/09/04 01:33:18;;;;;;;17.25;15.75;;;;;;;17.18;72.47;101330.44;4927257;29;20505;-79
2022/09/04 01:36:14;;;;;;;16.60;15.07;;;;;;;17.10;73.43;101330.41;4926877;29;20110;-79
2022/09/04 01:38:54;;;;;;;15.13;13.63;;;;;;;17.12;73.21;101331.06;4922104;29;20044;-79
2022/09/04 01:41:47;;;;;;;15.25;13.95;;;;;;;17.11;73.89;101339.91;4914197;29;20051;-80
2022/09/04 01:44:13;;;;;;;14.90;13.45;;;;;;;17.12;75.03;101341.56;4927621;29;20087;-79
2022/09/04 01:47:00;;;;;;;14.63;13.18;;;;;;;17.18;74.41;101340.94;4928911;29;20051;-79
2022/09/04 01:49:45;;;;;;;14.50;13.05;;;;;;;17.28;73.74;101339.03;4924254;29;20044;-80
2022/09/04 01:52:36;;;;;;;14.43;12.98;;;;;;;17.39;72.74;101346.63;4933959;28;20038;-80
2022/09/04 01:55:12;;;;;;;14.10;12.73;;;;;;;17.40;73.08;101345.63;4990465;28;20042;-79
2022/09/04 01:58:03;;;;;;;14.15;12.75;;;;;;;17.46;73.18;101354.69;4988603;28;20513;-80
2022/09/04 02:00:33;;;;;;;14.48;13.13;;;;;;;17.41;73.57;101347.28;4988662;28;20049;-79
2022/09/04 02:03:18;;;;;;;14.57;13.27;;;;;;;17.28;74.57;101346.91;4973280;28;20628;-79
2022/09/04 02:06:00;;;;;;;14.93;13.65;;;;;;;17.16;75.11;101358.63;4972003;28;20018;-79
2022/09/04 02:08:32;;;;;;;14.38;13.07;;;;;;;17.06;75.12;101353.47;4989135;28;20039;-79
2022/09/04 02:11:15;;;;;;;15.02;13.73;;;;;;;17.08;75.39;101350.69;4980822;28;20031;-79
2022/09/04 02:14:07;;;;;;;14.60;13.30;;;;;;;17.02;75.60;101361.81;4988008;28;20073;-79
2022/09/04 02:16:56;;;;;;;14.43;13.13;;;;;;;17.09;75.50;101368.06;4989326;28;20462;-79
2022/09/04 02:19:21;;;;;;;14.77;13.25;;;;;;;16.96;76.19;101374.53;4988630;28;20121;-79
2022/09/04 02:22:11;;;;;;;15.05;13.70;;;;;;;16.93;76.81;101369.63;4989616;28;20109;-80
2022/09/04 02:25:07;;;;;;;14.65;13.35;;;;;;;16.95;77.07;101383.38;4988550;28;20031;-79
2022/09/04 02:27:49;;;;;;;14.38;13.00;;;;;;;16.92;76.36;101373.22;4971844;28;20038;-79
2022/09/04 02:30:19;;;;;;;14.48;13.20;;;;;;;16.94;76.48;101380.91;4984946;28;20030;-79
2022/09/04 02:32:50;;;;;;;15.23;13.82;;;;;;;16.87;77.62;101382.50;4986738;28;20041;-79
2022/09/04 02:35:19;;;;;;;14.63;13.32;;;;;;;16.91;77.99;101382.03;4987685;28;20040;-80
2022/09/04 02:38:21;;;;;;;14.48;13.25;;;;;;;16.93;77.84;101379.28;4988113;28;20031;-79
2022/09/04 02:41:10;;;;;;;15.00;13.60;;;;;;;16.83;77.86;101374.13;4983475;28;20023;-80
2022/09/04 02:44:08;;;;;;;15.77;14.32;;;;;;;16.83;78.34;101379.38;4988859;28;20034;-80
2022/09/04 02:46:41;;;;;;;15.60;14.20;;;;;;;16.77;77.99;101384.41;4988169;28;20030;-79
2022/09/04 02:49:28;;;;;;;15.02;13.50;;;;;;;16.79;77.98;101398.97;4989207;28;20030;-79
2022/09/04 02:52:22;;;;;;;14.50;13.20;;;;;;;16.97;76.32;101385.84;4971408;28;20041;-79
2022/09/04 02:55:16;;;;;;;14.63;13.23;;;;;;;17.01;76.61;101383.75;4976495;28;20474;-79
2022/09/04 02:58:00;;;;;;;15.82;14.32;;;;;;;16.96;77.87;101389.44;4987013;28;20027;-80
2022/09/04 03:00:40;;;;;;;15.70;14.27;;;;;;;16.72;78.77;101385.66;4975616;28;20041;-79
2022/09/04 03:03:16;;;;;;;15.70;14.30;;;;;;;16.68;78.55;101391.31;4971543;28;20120;-79
2022/09/04 03:06:00;;;;;;;15.80;14.30;;;;;;;16.64;79.17;101398.69;4987147;28;20030;-79
2022/09/04 03:08:42;;;;;;;16.27;14.70;;;;;;;16.79;77.68;101393.72;4989058;28;20042;-79
2022/09/04 03:11:18;;;;;;;16.35;14.90;;;;;;;16.76;78.33;101396.69;4979370;28;20093;-79
2022/09/04 03:14:01;;;;;;;17.23;15.73;;;;;;;16.55;80.15;101390.88;4984311;28;20014;-79
2022/09/04 03:16:35;;;;;;;16.58;15.07;;;;;;;16.73;79.00;101394.34;4988207;28;20034;-80
2022/09/04 03:19:23;;;;;;;16.80;15.27;;;;;;;16.82;78.46;101388.19;4971638;28;20053;-80
2022/09/04 03:22:14;;;;;;;16.33;14.88;;;;;;;16.74;79.12;101390.75;4983890;28;20073;-79
2022/09/04 03:25:07;;;;;;;17.30;15.60;;;;;;;16.75;78.70;101386.34;4967122;28;20041;-79
2022/09/04 03:27:33;;;;;;;16.25;14.85;;;;;;;16.74;78.43;101395.97;4980850;28;20129;-80
2022/09/04 03:30:11;;;;;;;16.33;14.93;;;;;;;16.75;78.73;101391.59;4969813;28;20049;-80
2022/09/04 03:32:52;;;;;;;16.50;15.15;;;;;;;16.79;78.60;101406.84;4987222;28;20289;-79
2022/09/04 03:35:32;;;;;;;16.35;14.85;;;;;;;16.77;77.84;101395.69;4973252;28;20034;-80
2022/09/04 03:38:21;;;;;;;16.70;15.27;;;;;;;16.85;77.50;101408.03;4987463;28;20026;-79
2022/09/04 03:41:13;;;;;;;16.05;14.63;;;;;;;16.79;78.10;101403.41;4982801;28;20030;-79
2022/09/04 03:44:09;;;;;;;16.52;15.02;;;;;;;16.79;77.49;101404.22;4988621;28;20026;-79
2022/09/04 03:46:54;;;;;;;16.65;15.07;;;;;;;16.75;77.73;101402.88;4976147;28;20053;-80
2022/09/04 03:49:41;;;;;;;16.15;14.75;;;;;;;16.80;77.25;101420.75;4987069;28;20030;-79
2022/09/04 03:52:13;;;;;;;17.37;15.77;;;;;;;16.68;78.20;101407.03;4986735;28;20478;-80
2022/09/04 03:55:14;;;;;;;16.83;15.32;;;;;;;16.72;78.13;101424.13;4970966;28;20049;-79
2022/09/04 03:58:09;;;;;;;16.67;14.98;;;;;;;16.76;77.30;101425.50;4995940;28;20026;-79
2022/09/04 04:01:11;;;;;;;17.35;15.75;;;;;;;16.70;78.02;101426.06;4971146;28;20046;-79
2022/09/04 04:03:52;;;;;;;18.00;16.40;;;;;;;16.66;78.33;101432.56;4955449;28;20049;-79
2022/09/04 04:06:22;;;;;;;18.25;16.55;;;;;;;16.57;78.62;101430.81;4987780;28;20438;-79
2022/09/04 04:08:55;;;;;;;18.30;16.70;;;;;;;16.59;78.57;101428.91;4983505;28;20026;-79
2022/09/04 04:11:41;;;;;;;18.95;17.05;;;;;;;16.58;78.51;101422.84;4987575;28;20164;-80
2022/09/04 04:14:48;;;;;;;18.50;16.95;;;;;;;16.60;79.02;101427.94;4974707;28;20034;-80
2022/09/04 04:17:30;;;;;;;19.10;17.40;;;;;;;16.51;78.71;101431.44;4987522;28;20085;-81
2022/09/04 04:20:37;;;;;;;18.77;17.17;;;;;;;16.53;79.19;101439.97;4986824;28;20109;-79
2022/09/04 04:23:20;;;;;;;18.55;17.02;;;;;;;16.41;79.28;101442.81;4963718;28;20486;-79
2022/09/04 04:26:08;;;;;;;18.00;16.50;;;;;;;16.45;78.73;101431.03;4987641;28;20534;-79
2022/09/04 04:29:09;;;;;;;19.92;18.17;;;;;;;16.43;79.52;101440.84;4981210;28;20215;-79
2022/09/04 04:32:09;;;;;;;21.08;19.13;;;;;;;15.96;81.45;101441.97;4986326;28;20018;-80
2022/09/04 04:34:54;;;;;;;20.70;18.90;;;;;;;16.14;80.91;101442.84;4986551;28;20389;-80
2022/09/04 04:37:20;;;;;;;;;;;;;;;16.42;78.14;101457.53;4985636;28;20030;-79
2022/09/04 04:39:54;;;;;;;19.48;17.77;;;;;;;16.30;79.50;101453.50;4983035;28;19918;-79
2022/09/04 04:42:39;;;;;;;20.27;18.48;;;;;;;16.30;79.48;101456.09;4985158;28;20041;-79
2022/09/04 04:48:30;;;;;;;21.15;19.23;;;;;;;16.21;80.69;101459.59;4977652;28;20037;-79
2022/09/04 04:51:17;;;;;;;19.98;18.05;;;;;;;16.21;80.05;101456.97;4986027;28;20022;-79
2022/09/04 04:54:02;;;;;;;19.55;17.75;;;;;;;16.22;80.12;101452.56;4984031;28;20586;-79
2022/09/04 04:56:45;;;;;;;19.40;17.70;;;;;;;16.22;79.81;101463.84;4984464;28;20030;-80
2022/09/04 04:59:19;;;;;;;20.02;18.13;;;;;;;16.17;80.64;101461.69;4974513;28;20088;-79
2022/09/04 05:02:22;;;;;;;20.08;18.17;;;;;;;16.24;80.13;101472.41;4985836;28;20053;-79
2022/09/04 05:05:12;;;;;;;19.92;18.10;;;;;;;16.25;80.37;101475.84;4964474;28;20030;-79
2022/09/04 05:08:16;;;;;;;20.67;18.85;;;;;;;16.20;80.55;101471.03;4978203;28;20045;-79
2022/09/04 05:10:52;;;;;;;21.02;19.02;;;;;;;16.12;80.14;101468.34;4952382;28;20125;-79
2022/09/04 05:13:39;;;;;;;20.85;18.83;;;;;;;16.18;80.58;101483.47;4989802;28;20030;-79
2022/09/04 05:16:16;;;;;;;22.13;20.13;;;;;;;16.03;82.27;101480.47;4991237;28;20034;-80
2022/09/04 05:19:14;;;;;;;21.83;19.87;;;;;;;16.15;80.89;101475.88;4975561;28;20026;-79
2022/09/04 05:21:54;;;;;;;20.45;18.63;;;;;;;16.14;80.70;101487.31;4976002;28;20034;-79
2022/09/04 05:24:26;;;;;;;21.83;19.92;;;;;;;16.15;80.80;101494.19;4968898;28;20038;-79
2022/09/04 05:27:13;;;;;;;22.77;20.60;;;;;;;16.08;81.51;101488.72;4973040;28;20158;-79
2022/09/04 05:29:51;;;;;;;21.15;19.15;;;;;;;16.12;80.79;101507.59;4974279;28;20034;-81
2022/09/04 05:32:34;;;;;;;22.47;20.27;;;;;;;16.19;80.56;101511.28;4971387;28;20093;-79
2022/09/04 05:35:09;;;;;;;20.88;19.02;;;;;;;16.12;80.14;101510.22;4976026;28;20054;-79
2022/09/04 05:37:43;;;;;;;22.42;20.27;;;;;;;16.14;80.90;101508.25;4971637;28;20367;-80
2022/09/04 05:40:44;;;;;;;22.05;19.98;;;;;;;16.15;81.02;101509.91;4978025;28;20369;-80
2022/09/04 05:43:39;;;;;;;22.42;20.33;;;;;;;16.26;79.97;101512.34;4910109;29;20042;-80
2022/09/04 05:46:38;;;;;;;22.05;20.15;;;;;;;16.25;80.31;101523.78;4872108;29;20417;-79
2022/09/04 05:49:19;;;;;;;23.05;20.88;;;;;;;16.15;80.86;101533.47;4872143;29;20040;-79
2022/09/04 05:52:06;;;;;;;23.63;21.63;;;;;;;16.22;81.04;101536.31;4871314;29;20039;-79
2022/09/04 05:54:44;;;;;;;24.48;22.00;;;;;;;16.19;80.50;101532.22;4871846;29;20122;-79
2022/09/04 05:57:27;;;;;;;23.85;21.67;;;;;;;16.25;80.55;101542.09;4872533;29;20055;-79
2022/09/04 06:00:01;;;;;;;24.65;22.42;;;;;;;16.15;81.87;101547.38;4872208;29;20382;-79
2022/09/04 06:02:45;;;;;;;24.63;22.23;;;;;;;16.20;80.92;101545.16;4871467;29;20036;-79
2022/09/04 06:05:20;;;;;;;24.38;22.08;;;;;;;16.23;80.74;101544.03;4871695;29;20052;-79
2022/09/04 06:07:51;;;;;;;25.15;22.95;;;;;;;16.25;81.76;101547.34;4871315;29;20033;-80
2022/09/04 06:10:28;;;;;;;25.40;23.02;;;;;;;16.22;81.73;101542.38;4871911;29;20124;-80
2022/09/04 06:13:12;;;;;;;24.95;22.75;;;;;;;16.34;81.21;101551.69;4871973;29;20767;-79
2022/09/04 06:16:01;;;;;;;25.90;23.30;;;;;;;16.34;81.23;101556.91;4871140;29;20048;-80
2022/09/04 06:18:43;;;;;;;25.52;23.17;;;;;;;16.36;81.12;101555.00;4880794;29;20500;-79
2022/09/04 06:21:21;;;;;;;25.20;22.80;;;;;;;16.38;81.22;101555.66;4906666;29;20046;-79
2022/09/04 06:23:49;;;;;;;25.77;23.25;;;;;;;16.46;81.15;101561.03;4950794;28;20030;-79
2022/09/04 06:26:33;;;;;;;25.70;23.50;;;;;;;16.47;81.86;101556.59;4943460;28;20515;-79
2022/09/04 06:29:13;;;;;;;27.20;24.70;;;;;;;16.37;82.77;101556.66;4944919;28;20074;-79
2022/09/04 06:31:50;;;;;;;26.90;24.27;;;;;;;16.45;82.09;101548.06;4945865;28;20114;-79
2022/09/04 06:34:42;;;;;;;26.88;24.48;;;;;;;16.48;82.27;101555.63;4938822;28;20067;-80
2022/09/04 06:37:25;;;;;;;27.23;24.67;;;;;;;16.55;81.95;101558.50;4933325;28;20424;-79
2022/09/04 06:40:17;;;;;;;27.80;25.08;;;;;;;16.64;81.95;101568.09;4944442;28;20460;-80
2022/09/04 06:42:58;;;;;;;27.17;24.73;;;;;;;16.61;82.28;101573.63;4945602;28;20043;-81
2022/09/04 06:46:25;;;;;;;26.10;23.70;;;;;;;16.77;81.04;101573.84;4932824;28;20028;-79
2022/09/04 06:49:16;;;;;;;28.00;25.40;;;;;;;16.77;82.09;101573.84;4920653;28;20043;-78
2022/09/04 06:51:55;;;;;;;27.27;24.85;;;;;;;16.84;82.28;101579.31;4950978;28;20063;-79
2022/09/04 06:54:20;;;;;;;27.00;24.52;;;;;;;16.92;82.40;101582.84;4978917;28;20125;-77
2022/09/04 06:57:04;;;;;;;27.35;24.90;;;;;;;16.99;82.39;101573.41;4979027;28;20107;-77
2022/09/04 06:59:40;;;;;;;26.60;24.00;;;;;;;17.09;82.67;101588.22;4970173;28;20034;-77
2022/09/04 07:02:14;;;;;;;27.55;24.98;;;;;;;17.11;82.48;101583.69;4984891;28;20446;-78
2022/09/04 07:04:58;;;;;;;27.20;24.80;;;;;;;17.23;81.76;101579.84;4979609;28;20124;-78
2022/09/04 07:07:31;;;;;;;26.40;24.20;;;;;;;17.32;81.58;101584.22;4979115;28;20088;-77
2022/09/04 07:10:05;;;;;;;26.70;24.25;;;;;;;17.39;81.56;101585.25;4980685;28;20522;-77
2022/09/04 07:12:46;;;;;;;27.02;24.75;;;;;;;17.51;81.49;101584.03;4958179;28;20383;-77
2022/09/04 07:15:32;;;;;;;27.67;24.92;;;;;;;17.57;81.69;101587.03;4970445;28;20026;-77
2022/09/04 07:18:16;;;;;;;27.85;25.45;;;;;;;17.60;81.84;101584.09;4970388;28;20054;-78
2022/09/04 07:21:17;;;;;;;25.67;23.52;;;;;;;17.69;81.64;101589.25;4964601;28;20030;-78
2022/09/04 07:24:08;;;;;;;25.38;23.17;;;;;;;17.75;81.01;101595.72;4975505;28;20062;-77
2022/09/04 07:26:59;;;;;;;26.83;24.30;;;;;;;17.84;81.29;101594.81;4954197;28;20080;-77
2022/09/04 07:29:34;;;;;;;25.60;23.30;;;;;;;17.99;80.96;101598.50;4984226;28;20092;-78
2022/09/04 07:32:17;;;;;;;25.55;23.33;;;;;;;18.04;80.28;101596.25;4973347;28;20085;-77
2022/09/04 07:35:06;;;;;;;25.08;22.77;;;;;;;18.15;79.80;101594.34;4971091;28;20058;-78
2022/09/04 07:37:57;;;;;;;24.92;22.77;;;;;;;18.30;79.76;101600.66;4960450;28;20050;-77
2022/09/04 07:40:33;;;;;;;24.45;22.52;;;;;;;18.35;79.69;101603.66;4968132;28;20030;-78
2022/09/04 07:43:20;;;;;;;25.92;23.45;;;;;;;18.44;79.45;101602.69;4986781;28;20113;-77
2022/09/04 07:45:53;;;;;;;24.35;22.17;;;;;;;18.54;78.74;101606.00;4972738;28;20058;-78
2022/09/04 07:48:34;;;;;;;24.35;22.25;;;;;;;18.67;78.75;101612.63;4974678;28;20030;-78
2022/09/04 07:51:03;;;;;;;24.67;22.48;;;;;;;18.75;79.11;101594.28;4986153;28;20600;-77
2022/09/04 07:53:47;;;;;;;23.98;21.92;;;;;;;18.83;78.35;101610.09;4965738;28;20149;-78
2022/09/04 07:56:21;;;;;;;25.20;22.70;;;;;;;18.94;77.98;101606.34;4985249;28;20540;-77
2022/09/04 07:59:04;;;;;;;24.23;22.02;;;;;;;19.08;78.19;101611.78;4980670;28;20026;-77
2022/09/04 08:01:35;;;;;;;24.02;21.90;;;;;;;19.25;77.83;101606.53;4984481;28;20030;-78
2022/09/04 08:04:04;;;;;;;24.08;21.88;;;;;;;19.35;77.86;101617.75;4974225;28;20428;-77
2022/09/04 08:06:51;;;;;;;23.85;21.67;;;;;;;19.41;77.15;101622.34;4971613;28;20060;-77
2022/09/04 08:09:48;;;;;;;21.98;20.13;;;;;;;19.59;76.54;101620.41;4980027;28;20030;-78
2022/09/04 08:12:16;;;;;;;21.52;19.52;;;;;;;19.70;75.82;101626.31;4945637;28;20042;-78
2022/09/04 08:14:53;;;;;;;20.92;19.10;;;;;;;19.80;75.39;101625.16;4971985;28;20178;-77
2022/09/04 08:17:32;;;;;;;22.35;20.35;;;;;;;19.93;75.30;101627.28;4973516;28;20034;-77
2022/09/04 08:20:11;;;;;;;21.85;19.95;;;;;;;20.04;75.01;101624.31;4976403;28;20481;-78
2022/09/04 08:23:04;;;;;;;20.95;19.05;;;;;;;20.26;74.52;101640.41;4978617;28;20061;-78
2022/09/04 08:26:03;;;;;;;20.20;18.40;;;;;;;20.39;74.23;101643.31;4973077;28;20030;-78
2022/09/04 08:28:37;;;;;;;20.92;19.02;;;;;;;20.50;72.99;101648.25;4977390;28;20032;-78
2022/09/04 08:31:34;;;;;;;19.40;17.70;;;;;;;20.67;73.10;101647.19;4976291;28;20038;-78
2022/09/04 08:34:21;;;;;;;19.45;17.65;;;;;;;20.75;72.31;101643.69;4977604;28;20034;-78
2022/09/04 08:37:24;;;;;;;19.02;17.25;;;;;;;20.86;72.19;101650.41;4974595;28;20042;-78
2022/09/04 08:40:11;;;;;;;19.85;17.95;;;;;;;20.93;71.90;101646.06;4985991;28;20506;-78
2022/09/04 08:43:06;;;;;;;18.17;16.58;;;;;;;21.03;71.07;101641.41;4977978;28;20523;-78
2022/09/04 08:45:58;;;;;;;17.17;15.38;;;;;;;21.24;70.31;101650.53;4952216;28;20043;-78
2022/09/04 08:48:31;;;;;;;16.98;15.27;;;;;;;21.41;69.53;101655.56;4983518;28;20080;-78
2022/09/04 08:51:05;;;;;;;15.65;14.15;;;;;;;21.56;69.07;101663.50;4982907;28;20030;-78
2022/09/04 08:54:01;;;;;;;15.68;14.18;;;;;;;21.68;69.29;101656.84;4966123;28;20047;-78
2022/09/04 08:56:54;;;;;;;15.27;13.88;;;;;;;21.76;67.90;101665.69;4978778;28;20046;-79
2022/09/04 08:59:28;;;;;;;15.73;14.32;;;;;;;21.85;67.64;101664.59;4953868;28;20050;-79
2022/09/04 09:02:15;;;;;;;15.38;13.75;;;;;;;21.99;67.81;101653.25;4970044;28;20037;-78
2022/09/04 09:04:59;;;;;;;14.93;13.52;;;;;;;21.99;66.99;101655.88;4975032;28;20030;-78
2022/09/04 09:07:45;;;;;;;14.88;13.27;;;;;;;22.15;67.37;101662.88;4986379;28;20140;-79
2022/09/04 09:10:35;;;;;;;14.68;13.23;;;;;;;22.33;67.07;101654.59;4986194;28;20038;-79
2022/09/04 09:13:19;;;;;;;13.80;12.50;;;;;;;22.37;66.21;101655.88;4967344;28;20030;-79
2022/09/04 09:16:17;;;;;;;12.88;11.60;;;;;;;22.55;65.97;101658.97;4978846;28;20080;-78
2022/09/04 09:19:01;;;;;;;14.38;12.88;;;;;;;22.58;65.72;101655.94;4971632;28;20027;-78
2022/09/04 09:21:51;;;;;;;13.65;12.35;;;;;;;22.71;66.30;101648.19;4975805;28;20027;-79
2022/09/04 09:24:41;;;;;;;14.50;13.15;;;;;;;22.76;65.46;101651.06;4981683;28;20027;-79
2022/09/04 09:27:10;;;;;;;13.55;12.20;;;;;;;22.92;63.86;101654.53;4979702;28;20513;-78
2022/09/04 09:29:53;;;;;;;13.25;11.85;;;;;;;22.94;63.31;101657.81;4968733;28;20390;-78
2022/09/04 09:32:28;;;;;;;14.43;12.98;;;;;;;22.94;63.34;101652.50;4981481;28;20029;-77
2022/09/04 09:35:15;;;;;;;14.10;12.70;;;;;;;23.15;63.47;101655.19;4976870;28;20034;-78
2022/09/04 09:38:18;;;;;;;14.88;11.90;;;;;;;23.18;63.03;101652.19;4976821;28;20109;-78
2022/09/04 09:40:54;;;;;;;13.75;11.73;;;;;;;23.24;61.81;101654.09;4978798;28;20030;-79
2022/09/04 09:43:29;;;;;;;14.55;11.70;;;;;;;23.31;60.35;101654.97;4974347;28;20023;-79
2022/09/04 09:46:45;;;;;;;11.95;10.57;;;;;;;23.49;62.00;101657.16;4981579;28;20030;-79
2022/09/04 09:49:41;;;;;;;11.25;10.05;;;;;;;23.65;60.57;101666.72;4941567;28;20060;-79
2022/09/04 09:52:18;;;;;;;11.32;9.55;;;;;;;23.68;59.90;101666.31;4975597;28;20039;-78
2022/09/04 09:54:56;;;;;;;11.87;10.47;;;;;;;23.85;58.83;101659.72;4971403;28;20097;-78
2022/09/04 09:57:48;;;;;;;10.98;9.75;;;;;;;23.91;59.38;101659.97;4975154;28;20026;-79
2022/09/04 10:00:18;;;;;;;10.52;8.25;;;;;;;24.17;58.38;101654.84;4972340;28;20035;-79
2022/09/04 10:03:12;;;;;;;10.30;7.68;;;;;;;24.30;58.77;101665.53;4972593;28;20015;-79
2022/09/04 10:05:38;;;;;;;9.13;7.60;;;;;;;24.43;57.18;101658.69;4974328;28;20022;-78
2022/09/04 10:08:26;;;;;;;9.82;7.70;;;;;;;24.47;58.20;101654.63;4971531;28;20098;-79
2022/09/04 10:11:07;;;;;;;9.43;7.65;;;;;;;24.55;57.32;101657.97;4939673;28;20042;-80
2022/09/04 10:13:46;;;;;;;11.38;8.63;;;;;;;24.68;56.00;101657.19;4972135;28;20033;-80
2022/09/04 10:16:49;;;;;;;10.25;8.02;;;;;;;24.61;56.88;101657.16;4969829;28;20037;-80
2022/09/04 10:19:50;;;;;;;8.82;6.15;;;;;;;24.77;56.55;101666.59;4973198;28;20026;-79
2022/09/04 10:22:31;;;;;;;8.10;5.93;;;;;;;24.87;55.69;101661.75;4970845;28;20074;-80
2022/09/04 10:25:14;;;;;;;7.90;6.00;;;;;;;24.95;56.52;101652.00;4974689;28;20068;-79
2022/09/04 10:28:01;;;;;;;7.72;6.20;;;;;;;24.91;55.82;101654.22;4976936;28;20082;-78
2022/09/04 10:30:49;;;;;;;10.32;6.47;;;;;;;25.01;55.96;101645.88;4969738;28;20041;-80
2022/09/04 10:33:59;;;;;;;8.32;5.90;;;;;;;25.14;55.40;101651.22;4968733;28;20030;-78
2022/09/04 10:36:43;;;;;;;8.88;5.88;;;;;;;25.33;55.14;101655.75;4972746;28;20133;-79
2022/09/04 10:42:11;;;;;;;8.98;5.47;;;;;;;25.19;53.17;101651.44;4970669;28;20129;-80
2022/09/04 10:44:43;;;;;;;9.52;4.70;;;;;;;25.39;53.25;101654.94;4976109;28;20046;-78
2022/09/04 10:47:23;;;;;;;6.40;4.30;;;;;;;25.53;52.50;101657.63;4972255;28;20066;-80
2022/09/04 10:50:07;;;;;;;7.93;3.83;;;;;;;25.71;52.96;101660.47;4978367;28;20025;-78
2022/09/04 10:52:56;;;;;;;6.28;3.58;;;;;;;25.77;51.89;101662.34;4985356;28;20055;-78
2022/09/04 10:55:26;;;;;;;6.88;3.63;;;;;;;25.76;51.29;101660.72;4970381;28;20395;-79
2022/09/04 10:58:16;;;;;;;6.80;4.22;;;;;;;25.80;52.12;101667.25;4978739;28;20023;-79
2022/09/04 11:00:49;;;;;;;7.95;4.22;;;;;;;25.65;51.85;101663.97;4981712;28;20038;-79
2022/09/04 11:03:34;;;;;;;6.20;4.30;;;;;;;25.72;52.38;101655.97;4971805;28;20045;-78
2022/09/04 11:06:25;;;;;;;3.80;2.80;;;;;;;25.95;51.39;101665.19;4976214;28;20035;-79
2022/09/04 11:09:09;;;;;;;5.63;3.00;;;;;;;26.09;50.77;101658.03;4975333;28;20440;-78
2022/09/04 11:11:44;;;;;;;5.18;2.70;;;;;;;26.17;50.60;101656.97;4975603;28;20027;-79
2022/09/04 11:14:39;;;;;;;4.72;2.70;;;;;;;26.17;50.30;101662.28;4977383;28;20026;-78
2022/09/04 11:17:10;;;;;;;6.63;3.30;;;;;;;25.98;49.35;101653.34;4966151;28;20486;-79
2022/09/04 11:19:54;;;;;;;5.35;2.88;;;;;;;26.23;50.07;101655.34;4988577;28;20074;-79
2022/09/04 11:23:07;;;;;;;5.32;3.10;;;;;;;26.13;50.51;101658.41;4973834;28;20041;-79
2022/09/04 11:25:43;;;;;;;4.85;2.70;;;;;;;26.40;49.59;101652.00;4981697;28;20588;-78
2022/09/04 11:28:30;;;;;;;4.70;2.72;;;;;;;26.50;48.66;101661.44;4979516;28;20152;-79
2022/09/04 11:31:19;;;;;;;6.05;2.50;;;;;;;26.65;48.79;101653.97;4981448;28;20037;-78
2022/09/04 11:34:22;;;;;;;3.28;2.40;;;;;;;26.84;48.15;101661.06;4976095;28;20027;-78
2022/09/04 11:36:54;;;;;;;5.75;2.45;;;;;;;26.60;47.63;101661.78;4974519;28;20332;-78
2022/09/04 11:39:42;;;;;;;5.05;2.45;;;;;;;26.44;47.27;101658.56;4967301;28;20019;-79
2022/09/04 11:42:23;;;;;;;5.65;2.67;;;;;;;26.40;48.74;101657.31;4987068;28;20462;-77
2022/09/04 11:45:25;;;;;;;3.63;2.38;;;;;;;26.43;48.56;101662.25;4982071;28;20030;-79
2022/09/04 11:48:10;;;;;;;4.00;2.38;;;;;;;26.31;47.70;101653.25;4981212;28;20065;-78
2022/09/04 11:50:56;;;;;;;4.95;2.72;;;;;;;26.42;48.94;101665.13;4974824;28;20030;-78
2022/09/04 11:53:27;;;;;;;4.50;2.90;;;;;;;26.29;48.95;101665.94;4981291;28;20042;-77
2022/09/04 11:56:11;;;;;;;3.72;3.10;;;;;;;26.32;49.53;101644.22;4973472;28;20066;-78
2022/09/04 11:58:43;;;;;;;4.13;2.70;;;;;;;26.48;49.46;101658.94;4979164;28;20040;-78
2022/09/04 12:01:19;;;;;;;3.53;2.50;;;;;;;26.64;49.35;101657.66;4986284;28;20030;-78
2022/09/04 12:04:09;;;;;;;4.30;2.65;;;;;;;26.67;47.95;101658.06;4973405;28;20521;-78
2022/09/04 12:07:04;;;;;;;5.70;2.72;;;;;;;26.71;47.67;101663.78;4964571;28;20118;-78
2022/09/04 12:09:57;;;;;;;4.80;2.60;;;;;;;26.73;48.76;101672.38;4975137;28;20041;-78
2022/09/04 12:12:37;;;;;;;5.20;3.13;;;;;;;26.83;47.00;101667.41;4980292;28;20038;-78
2022/09/04 12:15:12;;;;;;;5.57;2.80;;;;;;;26.96;47.53;101666.53;4987851;28;20602;-78
2022/09/04 12:17:47;;;;;;;4.00;2.38;;;;;;;27.05;46.83;101669.75;4987480;28;20040;-78
2022/09/04 12:20:41;;;;;;;4.68;2.80;;;;;;;26.93;47.25;101667.75;4981320;28;20068;-78
2022/09/04 12:23:47;;;;;;;4.70;2.70;;;;;;;26.91;47.46;101680.47;4984811;28;20038;-78
2022/09/04 12:26:31;;;;;;;3.30;2.33;;;;;;;26.80;47.22;101673.16;4892510;29;20516;-78
2022/09/04 12:29:23;;;;;;;3.38;2.42;;;;;;;26.81;47.44;101674.78;4903573;29;20200;-78
2022/09/04 12:32:14;;;;;;;4.70;2.55;;;;;;;26.85;47.47;101681.34;4902861;29;20122;-78
2022/09/04 12:35:05;;;;;;;3.97;2.65;;;;;;;26.88;46.85;101675.56;4907786;29;20130;-78
2022/09/04 12:37:36;;;;;;;3.60;2.40;;;;;;;26.92;45.49;101675.97;4905473;29;20144;-78